Island Heights, New Jersey
Current Conditions -  °F | °C
As of 1:15 PM on Friday 31 Oct 2014 (Local Time) from KMJX Reporting Station
Overcast Overcast  
Wind Chill: 54°   Ceiling: 2600
Heat Index: 54°   Visibility: 10mi
Dew Point: 41°   Wind: 7mph
Humidity: 62%   Direction: 20°NNE
Pressure: 29.92"   Gusts: NA
Location:  39.94°N, 74.15°W
Report Text: KMJX 311715Z AUTO 02006KT 10SM BKN026 BKN033 OVC060 12/05 A2992 RMK AO1
Loading
Personal Weather Stations






























Interactive Weather Map New forecast layout! Learn more

10-Day Weather Forecast

Advertisements
Track Severe Weather on mobile